Terminal Aerodrome Forecast
Issued by NWS Goodland, KS

Home | Current Version | Previous Version | Text Only | Print | Product List | Glossary On
Versions: 1 2 3 4 5 6 7 8 9 10 11 12 13 14 15 16 17 18 19 20 21 22 23
000
FTUS43 KGLD 150910 AAA
TAFGLD
TAF AMD
KGLD 150910Z 1509/1606 17015G25KT P6SM SKC WS012/16064KT
     FM151100 16015G25KT 3SM BR OVC002 WS012/16054KT
     FM151600 16017G24KT 6SM BR OVC005
     FM151700 15015G23KT P6SM BKN012
     FM152300 14017G24KT P6SM VCTS BKN060CB=

USA.gov is the U.S. government's official web portal to all federal, state and local government web resources and services.